sensor_id;sensor_type;location;lat;lon;timestamp;P1;durP1;ratioP1;P2;durP2;ratioP2
81967;SDS011;71468;56.880;60.616;2023-07-31T00:01:12;13.30;;;7.85;;
81967;SDS011;71468;56.880;60.616;2023-07-31T00:03:39;14.25;;;8.73;;
81967;SDS011;71468;56.880;60.616;2023-07-31T00:06:05;12.77;;;8.63;;
81967;SDS011;71468;56.880;60.616;2023-07-31T00:08:32;15.10;;;9.15;;
81967;SDS011;71468;56.880;60.616;2023-07-31T00:10:58;14.40;;;8.38;;
81967;SDS011;71468;56.880;60.616;2023-07-31T00:13:25;17.13;;;9.68;;
81967;SDS011;71468;56.880;60.616;2023-07-31T00:15:51;17.55;;;9.05;;
81967;SDS011;71468;56.880;60.616;2023-07-31T00:18:18;18.90;;;9.60;;
81967;SDS011;71468;56.880;60.616;2023-07-31T00:20:44;17.63;;;9.52;;
81967;SDS011;71468;56.880;60.616;2023-07-31T00:23:11;18.75;;;10.02;;
81967;SDS011;71468;56.880;60.616;2023-07-31T00:25:38;18.73;;;10.00;;
81967;SDS011;71468;56.880;60.616;2023-07-31T00:28:04;18.48;;;10.52;;
81967;SDS011;71468;56.880;60.616;2023-07-31T00:30:31;25.75;;;9.90;;
81967;SDS011;71468;56.880;60.616;2023-07-31T00:33:00;19.30;;;10.55;;
81967;SDS011;71468;56.880;60.616;2023-07-31T00:35:27;18.30;;;11.63;;
81967;SDS011;71468;56.880;60.616;2023-07-31T00:37:53;18.90;;;11.32;;
81967;SDS011;71468;56.880;60.616;2023-07-31T00:40:20;18.45;;;10.32;;
81967;SDS011;71468;56.880;60.616;2023-07-31T00:42:46;21.48;;;11.90;;
81967;SDS011;71468;56.880;60.616;2023-07-31T00:45:14;18.80;;;11.75;;
81967;SDS011;71468;56.880;60.616;2023-07-31T00:47:41;22.75;;;12.70;;
81967;SDS011;71468;56.880;60.616;2023-07-31T00:50:07;19.88;;;11.57;;
81967;SDS011;71468;56.880;60.616;2023-07-31T00:52:35;24.70;;;11.57;;
81967;SDS011;71468;56.880;60.616;2023-07-31T00:55:02;22.63;;;12.80;;
81967;SDS011;71468;56.880;60.616;2023-07-31T00:57:30;25.17;;;13.90;;
81967;SDS011;71468;56.880;60.616;2023-07-31T00:59:58;21.63;;;11.95;;
81967;SDS011;71468;56.880;60.616;2023-07-31T01:02:25;23.88;;;12.32;;
81967;SDS011;71468;56.880;60.616;2023-07-31T01:04:52;26.70;;;13.02;;
81967;SDS011;71468;56.880;60.616;2023-07-31T01:07:22;20.65;;;13.32;;
81967;SDS011;71468;56.880;60.616;2023-07-31T01:10:11;23.27;;;13.65;;
81967;SDS011;71468;56.880;60.616;2023-07-31T01:12:43;23.33;;;12.73;;
81967;SDS011;71468;56.880;60.616;2023-07-31T01:15:12;20.08;;;11.95;;
81967;SDS011;71468;56.880;60.616;2023-07-31T01:17:41;23.70;;;12.68;;
81967;SDS011;71468;56.880;60.616;2023-07-31T01:20:18;18.75;;;11.95;;
81967;SDS011;71468;56.880;60.616;2023-07-31T01:25:30;24.23;;;11.48;;
81967;SDS011;71468;56.880;60.616;2023-07-31T01:28:16;23.38;;;12.25;;
81967;SDS011;71468;56.880;60.616;2023-07-31T01:30:47;23.35;;;11.43;;
81967;SDS011;71468;56.880;60.616;2023-07-31T01:33:18;23.17;;;11.35;;
81967;SDS011;71468;56.880;60.616;2023-07-31T01:35:45;22.73;;;11.30;;
81967;SDS011;71468;56.880;60.616;2023-07-31T01:38:13;22.77;;;12.23;;
81967;SDS011;71468;56.880;60.616;2023-07-31T01:40:41;22.75;;;12.30;;
81967;SDS011;71468;56.880;60.616;2023-07-31T01:43:09;26.98;;;13.70;;
81967;SDS011;71468;56.880;60.616;2023-07-31T01:45:36;19.05;;;11.45;;
81967;SDS011;71468;56.880;60.616;2023-07-31T01:48:02;20.13;;;11.27;;
81967;SDS011;71468;56.880;60.616;2023-07-31T01:50:29;21.02;;;11.18;;
81967;SDS011;71468;56.880;60.616;2023-07-31T01:52:55;25.67;;;11.65;;
81967;SDS011;71468;56.880;60.616;2023-07-31T01:55:22;24.30;;;13.38;;
81967;SDS011;71468;56.880;60.616;2023-07-31T01:57:49;19.30;;;11.63;;
81967;SDS011;71468;56.880;60.616;2023-07-31T02:00:15;24.48;;;11.63;;
81967;SDS011;71468;56.880;60.616;2023-07-31T02:02:43;18.20;;;11.77;;
81967;SDS011;71468;56.880;60.616;2023-07-31T02:05:10;24.77;;;12.15;;
81967;SDS011;71468;56.880;60.616;2023-07-31T02:07:37;24.50;;;11.23;;
81967;SDS011;71468;56.880;60.616;2023-07-31T02:10:03;20.08;;;11.85;;
81967;SDS011;71468;56.880;60.616;2023-07-31T02:12:31;20.55;;;10.77;;
81967;SDS011;71468;56.880;60.616;2023-07-31T02:14:58;23.90;;;11.77;;
81967;SDS011;71468;56.880;60.616;2023-07-31T02:17:24;22.65;;;11.48;;
81967;SDS011;71468;56.880;60.616;2023-07-31T02:19:51;24.63;;;13.10;;
81967;SDS011;71468;56.880;60.616;2023-07-31T02:22:18;23.45;;;11.93;;
81967;SDS011;71468;56.880;60.616;2023-07-31T02:24:44;23.10;;;11.98;;
81967;SDS011;71468;56.880;60.616;2023-07-31T02:27:11;22.65;;;11.38;;
81967;SDS011;71468;56.880;60.616;2023-07-31T02:29:37;24.77;;;11.95;;
81967;SDS011;71468;56.880;60.616;2023-07-31T02:32:04;28.52;;;12.70;;
81967;SDS011;71468;56.880;60.616;2023-07-31T02:34:30;21.38;;;11.85;;
81967;SDS011;71468;56.880;60.616;2023-07-31T02:36:57;21.33;;;12.05;;
81967;SDS011;71468;56.880;60.616;2023-07-31T02:39:23;21.35;;;11.57;;
81967;SDS011;71468;56.880;60.616;2023-07-31T02:41:50;22.20;;;12.18;;
81967;SDS011;71468;56.880;60.616;2023-07-31T02:44:16;24.08;;;12.10;;
81967;SDS011;71468;56.880;60.616;2023-07-31T02:46:43;21.08;;;12.30;;
81967;SDS011;71468;56.880;60.616;2023-07-31T02:49:11;22.95;;;11.57;;
81967;SDS011;71468;56.880;60.616;2023-07-31T02:51:38;23.58;;;12.48;;
81967;SDS011;71468;56.880;60.616;2023-07-31T02:54:04;27.02;;;13.07;;
81967;SDS011;71468;56.880;60.616;2023-07-31T02:56:31;21.88;;;12.73;;
81967;SDS011;71468;56.880;60.616;2023-07-31T02:58:58;23.05;;;12.43;;
81967;SDS011;71468;56.880;60.616;2023-07-31T03:01:25;20.35;;;12.90;;
81967;SDS011;71468;56.880;60.616;2023-07-31T03:03:51;23.10;;;12.38;;
81967;SDS011;71468;56.880;60.616;2023-07-31T03:06:18;23.48;;;13.05;;
81967;SDS011;71468;56.880;60.616;2023-07-31T03:08:44;26.05;;;12.98;;
81967;SDS011;71468;56.880;60.616;2023-07-31T03:11:11;22.42;;;12.32;;
81967;SDS011;71468;56.880;60.616;2023-07-31T03:13:37;28.90;;;13.43;;
81967;SDS011;71468;56.880;60.616;2023-07-31T03:16:04;19.63;;;12.50;;
81967;SDS011;71468;56.880;60.616;2023-07-31T03:18:30;22.65;;;12.73;;
81967;SDS011;71468;56.880;60.616;2023-07-31T03:20:57;21.75;;;12.65;;
81967;SDS011;71468;56.880;60.616;2023-07-31T03:23:23;25.08;;;12.88;;
81967;SDS011;71468;56.880;60.616;2023-07-31T03:26:01;21.30;;;12.43;;
81967;SDS011;71468;56.880;60.616;2023-07-31T03:28:29;21.83;;;12.57;;
81967;SDS011;71468;56.880;60.616;2023-07-31T03:30:56;20.08;;;12.63;;
81967;SDS011;71468;56.880;60.616;2023-07-31T03:33:23;23.65;;;13.45;;
81967;SDS011;71468;56.880;60.616;2023-07-31T03:35:50;24.75;;;12.75;;
81967;SDS011;71468;56.880;60.616;2023-07-31T03:38:17;23.60;;;13.32;;
81967;SDS011;71468;56.880;60.616;2023-07-31T03:40:44;26.98;;;13.00;;
81967;SDS011;71468;56.880;60.616;2023-07-31T03:43:10;23.67;;;13.27;;
81967;SDS011;71468;56.880;60.616;2023-07-31T03:45:39;19.75;;;12.55;;
81967;SDS011;71468;56.880;60.616;2023-07-31T03:48:06;26.60;;;12.63;;
81967;SDS011;71468;56.880;60.616;2023-07-31T03:50:34;25.45;;;13.30;;
81967;SDS011;71468;56.880;60.616;2023-07-31T03:53:00;27.45;;;13.80;;
81967;SDS011;71468;56.880;60.616;2023-07-31T03:55:27;22.27;;;13.38;;
81967;SDS011;71468;56.880;60.616;2023-07-31T03:57:54;24.50;;;12.15;;
81967;SDS011;71468;56.880;60.616;2023-07-31T04:00:20;28.27;;;13.45;;
81967;SDS011;71468;56.880;60.616;2023-07-31T04:02:48;29.38;;;13.25;;
81967;SDS011;71468;56.880;60.616;2023-07-31T04:05:14;23.27;;;13.25;;
81967;SDS011;71468;56.880;60.616;2023-07-31T04:07:41;24.58;;;13.05;;
81967;SDS011;71468;56.880;60.616;2023-07-31T04:10:07;20.60;;;12.77;;
81967;SDS011;71468;56.880;60.616;2023-07-31T04:12:35;18.67;;;12.50;;
81967;SDS011;71468;56.880;60.616;2023-07-31T04:15:01;23.45;;;12.45;;
81967;SDS011;71468;56.880;60.616;2023-07-31T04:17:30;26.23;;;12.95;;
81967;SDS011;71468;56.880;60.616;2023-07-31T04:19:56;20.10;;;12.85;;
81967;SDS011;71468;56.880;60.616;2023-07-31T04:22:23;23.80;;;13.00;;
81967;SDS011;71468;56.880;60.616;2023-07-31T04:24:49;22.67;;;12.02;;
81967;SDS011;71468;56.880;60.616;2023-07-31T04:27:16;16.63;;;11.52;;
81967;SDS011;71468;56.880;60.616;2023-07-31T04:29:42;23.27;;;12.98;;
81967;SDS011;71468;56.880;60.616;2023-07-31T04:32:12;19.20;;;12.40;;
81967;SDS011;71468;56.880;60.616;2023-07-31T04:34:39;21.33;;;12.38;;
81967;SDS011;71468;56.880;60.616;2023-07-31T04:37:05;19.95;;;12.27;;
81967;SDS011;71468;56.880;60.616;2023-07-31T04:39:32;29.35;;;12.95;;
81967;SDS011;71468;56.880;60.616;2023-07-31T04:41:58;19.23;;;12.38;;
81967;SDS011;71468;56.880;60.616;2023-07-31T04:44:25;18.55;;;12.57;;
81967;SDS011;71468;56.880;60.616;2023-07-31T04:46:52;25.65;;;12.27;;
81967;SDS011;71468;56.880;60.616;2023-07-31T04:49:19;25.38;;;12.43;;
81967;SDS011;71468;56.880;60.616;2023-07-31T04:51:45;19.95;;;13.18;;
81967;SDS011;71468;56.880;60.616;2023-07-31T04:54:12;23.20;;;12.05;;
81967;SDS011;71468;56.880;60.616;2023-07-31T04:56:40;20.15;;;13.00;;
81967;SDS011;71468;56.880;60.616;2023-07-31T04:59:07;22.80;;;12.73;;
81967;SDS011;71468;56.880;60.616;2023-07-31T05:01:34;21.90;;;12.27;;
81967;SDS011;71468;56.880;60.616;2023-07-31T05:04:01;22.02;;;12.40;;
81967;SDS011;71468;56.880;60.616;2023-07-31T05:06:27;20.38;;;12.68;;
81967;SDS011;71468;56.880;60.616;2023-07-31T05:08:54;18.60;;;12.10;;
81967;SDS011;71468;56.880;60.616;2023-07-31T05:11:20;20.15;;;12.18;;
81967;SDS011;71468;56.880;60.616;2023-07-31T05:13:47;16.88;;;11.57;;
81967;SDS011;71468;56.880;60.616;2023-07-31T05:16:13;22.02;;;11.40;;
81967;SDS011;71468;56.880;60.616;2023-07-31T05:18:40;17.80;;;11.25;;
81967;SDS011;71468;56.880;60.616;2023-07-31T05:21:06;16.13;;;11.07;;
81967;SDS011;71468;56.880;60.616;2023-07-31T05:23:33;16.65;;;10.85;;
81967;SDS011;71468;56.880;60.616;2023-07-31T05:26:06;15.65;;;10.55;;
81967;SDS011;71468;56.880;60.616;2023-07-31T05:28:34;17.00;;;11.20;;
81967;SDS011;71468;56.880;60.616;2023-07-31T05:31:01;19.58;;;10.73;;
81967;SDS011;71468;56.880;60.616;2023-07-31T05:33:28;16.23;;;10.65;;
81967;SDS011;71468;56.880;60.616;2023-07-31T05:35:55;14.32;;;10.63;;
81967;SDS011;71468;56.880;60.616;2023-07-31T05:38:21;15.75;;;10.38;;
81967;SDS011;71468;56.880;60.616;2023-07-31T05:40:48;16.40;;;10.05;;
81967;SDS011;71468;56.880;60.616;2023-07-31T05:43:14;14.05;;;9.73;;
81967;SDS011;71468;56.880;60.616;2023-07-31T05:45:44;16.20;;;9.77;;
81967;SDS011;71468;56.880;60.616;2023-07-31T05:48:10;17.05;;;10.68;;
81967;SDS011;71468;56.880;60.616;2023-07-31T05:50:37;16.63;;;10.02;;
81967;SDS011;71468;56.880;60.616;2023-07-31T05:53:06;14.38;;;10.68;;
81967;SDS011;71468;56.880;60.616;2023-07-31T05:55:33;18.02;;;10.02;;
81967;SDS011;71468;56.880;60.616;2023-07-31T05:58:00;17.42;;;11.15;;
81967;SDS011;71468;56.880;60.616;2023-07-31T06:00:27;19.70;;;11.18;;
81967;SDS011;71468;56.880;60.616;2023-07-31T06:02:54;15.82;;;10.57;;
81967;SDS011;71468;56.880;60.616;2023-07-31T06:05:20;16.17;;;10.43;;
81967;SDS011;71468;56.880;60.616;2023-07-31T06:07:47;12.90;;;9.40;;
81967;SDS011;71468;56.880;60.616;2023-07-31T06:10:13;19.25;;;9.95;;
81967;SDS011;71468;56.880;60.616;2023-07-31T06:12:40;20.65;;;10.95;;
81967;SDS011;71468;56.880;60.616;2023-07-31T06:15:07;19.10;;;11.18;;
81967;SDS011;71468;56.880;60.616;2023-07-31T06:17:34;19.92;;;9.88;;
81967;SDS011;71468;56.880;60.616;2023-07-31T06:20:00;14.68;;;11.35;;
81967;SDS011;71468;56.880;60.616;2023-07-31T06:22:28;16.25;;;10.18;;
81967;SDS011;71468;56.880;60.616;2023-07-31T06:24:54;15.13;;;11.00;;
81967;SDS011;71468;56.880;60.616;2023-07-31T06:27:21;16.33;;;10.90;;
81967;SDS011;71468;56.880;60.616;2023-07-31T06:29:47;23.40;;;10.43;;
81967;SDS011;71468;56.880;60.616;2023-07-31T06:32:14;17.60;;;10.32;;
81967;SDS011;71468;56.880;60.616;2023-07-31T06:34:40;14.40;;;9.20;;
81967;SDS011;71468;56.880;60.616;2023-07-31T06:37:07;14.70;;;10.02;;
81967;SDS011;71468;56.880;60.616;2023-07-31T06:39:33;17.35;;;10.48;;
81967;SDS011;71468;56.880;60.616;2023-07-31T06:42:00;16.67;;;10.68;;
81967;SDS011;71468;56.880;60.616;2023-07-31T06:44:27;17.65;;;10.88;;
81967;SDS011;71468;56.880;60.616;2023-07-31T06:46:53;13.98;;;10.43;;
81967;SDS011;71468;56.880;60.616;2023-07-31T06:49:20;17.85;;;10.30;;
81967;SDS011;71468;56.880;60.616;2023-07-31T06:51:46;15.63;;;10.15;;
81967;SDS011;71468;56.880;60.616;2023-07-31T06:54:13;18.88;;;10.40;;
81967;SDS011;71468;56.880;60.616;2023-07-31T06:56:39;13.23;;;9.43;;
81967;SDS011;71468;56.880;60.616;2023-07-31T06:59:07;13.05;;;8.57;;
81967;SDS011;71468;56.880;60.616;2023-07-31T07:01:33;13.02;;;8.13;;
81967;SDS011;71468;56.880;60.616;2023-07-31T07:04:00;16.40;;;9.70;;
81967;SDS011;71468;56.880;60.616;2023-07-31T07:06:27;14.18;;;9.55;;
81967;SDS011;71468;56.880;60.616;2023-07-31T07:08:54;14.35;;;9.85;;
81967;SDS011;71468;56.880;60.616;2023-07-31T07:11:20;14.38;;;9.38;;
81967;SDS011;71468;56.880;60.616;2023-07-31T07:13:47;16.60;;;7.97;;
81967;SDS011;71468;56.880;60.616;2023-07-31T07:16:13;10.88;;;8.10;;
81967;SDS011;71468;56.880;60.616;2023-07-31T07:18:40;11.88;;;9.15;;
81967;SDS011;71468;56.880;60.616;2023-07-31T07:21:06;12.48;;;8.70;;
81967;SDS011;71468;56.880;60.616;2023-07-31T07:23:33;11.93;;;8.32;;
81967;SDS011;71468;56.880;60.616;2023-07-31T07:25:59;12.57;;;7.90;;
81967;SDS011;71468;56.880;60.616;2023-07-31T07:28:26;12.45;;;8.18;;
81967;SDS011;71468;56.880;60.616;2023-07-31T07:30:54;12.40;;;8.00;;
81967;SDS011;71468;56.880;60.616;2023-07-31T07:33:21;12.43;;;8.20;;
81967;SDS011;71468;56.880;60.616;2023-07-31T07:35:47;9.70;;;8.05;;
81967;SDS011;71468;56.880;60.616;2023-07-31T07:38:14;11.38;;;7.68;;
81967;SDS011;71468;56.880;60.616;2023-07-31T07:40:41;12.88;;;9.05;;
81967;SDS011;71468;56.880;60.616;2023-07-31T07:43:08;13.55;;;9.15;;
81967;SDS011;71468;56.880;60.616;2023-07-31T07:45:34;15.30;;;8.88;;
81967;SDS011;71468;56.880;60.616;2023-07-31T07:48:01;13.15;;;9.63;;
81967;SDS011;71468;56.880;60.616;2023-07-31T07:50:27;14.52;;;10.30;;
81967;SDS011;71468;56.880;60.616;2023-07-31T07:52:54;15.05;;;10.32;;
81967;SDS011;71468;56.880;60.616;2023-07-31T07:55:20;14.70;;;10.00;;
81967;SDS011;71468;56.880;60.616;2023-07-31T07:57:47;15.52;;;11.35;;
81967;SDS011;71468;56.880;60.616;2023-07-31T08:00:16;17.10;;;11.00;;
81967;SDS011;71468;56.880;60.616;2023-07-31T08:02:43;15.75;;;11.00;;
81967;SDS011;71468;56.880;60.616;2023-07-31T08:05:10;13.98;;;10.23;;
81967;SDS011;71468;56.880;60.616;2023-07-31T08:07:37;14.48;;;10.73;;
81967;SDS011;71468;56.880;60.616;2023-07-31T08:10:03;22.50;;;11.75;;
81967;SDS011;71468;56.880;60.616;2023-07-31T08:12:30;15.55;;;11.10;;
81967;SDS011;71468;56.880;60.616;2023-07-31T08:14:56;14.10;;;10.50;;
81967;SDS011;71468;56.880;60.616;2023-07-31T08:17:23;15.23;;;11.07;;
81967;SDS011;71468;56.880;60.616;2023-07-31T08:19:50;14.18;;;10.35;;
81967;SDS011;71468;56.880;60.616;2023-07-31T08:22:16;16.10;;;9.82;;
81967;SDS011;71468;56.880;60.616;2023-07-31T08:24:43;20.83;;;10.63;;
81967;SDS011;71468;56.880;60.616;2023-07-31T08:27:09;13.85;;;9.95;;
81967;SDS011;71468;56.880;60.616;2023-07-31T08:29:35;12.38;;;10.10;;
81967;SDS011;71468;56.880;60.616;2023-07-31T08:32:02;16.05;;;10.15;;
81967;SDS011;71468;56.880;60.616;2023-07-31T08:34:28;17.20;;;10.38;;
81967;SDS011;71468;56.880;60.616;2023-07-31T08:36:55;14.93;;;10.60;;
81967;SDS011;71468;56.880;60.616;2023-07-31T08:39:21;14.27;;;9.93;;
81967;SDS011;71468;56.880;60.616;2023-07-31T08:41:48;14.63;;;10.20;;
81967;SDS011;71468;56.880;60.616;2023-07-31T08:44:14;15.55;;;9.93;;
81967;SDS011;71468;56.880;60.616;2023-07-31T08:46:41;12.35;;;10.32;;
81967;SDS011;71468;56.880;60.616;2023-07-31T08:49:08;18.65;;;10.35;;
81967;SDS011;71468;56.880;60.616;2023-07-31T08:51:36;15.85;;;10.27;;
81967;SDS011;71468;56.880;60.616;2023-07-31T08:54:02;16.02;;;10.70;;
81967;SDS011;71468;56.880;60.616;2023-07-31T08:56:32;17.25;;;10.30;;
81967;SDS011;71468;56.880;60.616;2023-07-31T08:58:59;15.63;;;10.20;;
81967;SDS011;71468;56.880;60.616;2023-07-31T09:01:28;13.73;;;9.50;;
81967;SDS011;71468;56.880;60.616;2023-07-31T09:03:56;12.13;;;9.95;;
81967;SDS011;71468;56.880;60.616;2023-07-31T09:06:26;13.40;;;9.20;;
81967;SDS011;71468;56.880;60.616;2023-07-31T09:08:55;14.80;;;10.00;;
81967;SDS011;71468;56.880;60.616;2023-07-31T09:11:22;13.23;;;9.52;;
81967;SDS011;71468;56.880;60.616;2023-07-31T09:13:50;12.73;;;10.48;;
81967;SDS011;71468;56.880;60.616;2023-07-31T09:16:18;12.50;;;9.85;;
81967;SDS011;71468;56.880;60.616;2023-07-31T09:18:54;18.88;;;10.13;;
81967;SDS011;71468;56.880;60.616;2023-07-31T09:21:22;16.40;;;10.07;;
81967;SDS011;71468;56.880;60.616;2023-07-31T09:23:49;13.57;;;9.98;;
81967;SDS011;71468;56.880;60.616;2023-07-31T09:26:33;12.55;;;10.20;;
81967;SDS011;71468;56.880;60.616;2023-07-31T09:29:03;13.85;;;10.05;;
81967;SDS011;71468;56.880;60.616;2023-07-31T09:31:31;11.13;;;9.95;;
81967;SDS011;71468;56.880;60.616;2023-07-31T09:33:59;14.98;;;10.20;;
81967;SDS011;71468;56.880;60.616;2023-07-31T09:36:28;12.07;;;9.57;;
81967;SDS011;71468;56.880;60.616;2023-07-31T09:39:01;14.75;;;9.88;;
81967;SDS011;71468;56.880;60.616;2023-07-31T09:41:29;11.27;;;9.27;;
81967;SDS011;71468;56.880;60.616;2023-07-31T09:43:56;17.27;;;10.30;;
81967;SDS011;71468;56.880;60.616;2023-07-31T09:46:23;14.07;;;10.13;;
81967;SDS011;71468;56.880;60.616;2023-07-31T09:48:53;14.18;;;9.82;;
81967;SDS011;71468;56.880;60.616;2023-07-31T09:51:26;15.13;;;9.85;;
81967;SDS011;71468;56.880;60.616;2023-07-31T09:53:53;12.07;;;9.73;;
81967;SDS011;71468;56.880;60.616;2023-07-31T09:56:19;18.52;;;9.98;;
81967;SDS011;71468;56.880;60.616;2023-07-31T09:58:47;15.55;;;9.95;;
81967;SDS011;71468;56.880;60.616;2023-07-31T10:01:14;13.05;;;10.50;;
81967;SDS011;71468;56.880;60.616;2023-07-31T10:03:42;15.43;;;9.98;;
81967;SDS011;71468;56.880;60.616;2023-07-31T10:06:11;15.85;;;9.90;;
81967;SDS011;71468;56.880;60.616;2023-07-31T10:08:38;13.40;;;9.90;;
81967;SDS011;71468;56.880;60.616;2023-07-31T10:11:05;10.95;;;9.70;;
81967;SDS011;71468;56.880;60.616;2023-07-31T10:13:32;13.55;;;9.55;;
81967;SDS011;71468;56.880;60.616;2023-07-31T10:15:59;17.73;;;9.73;;
81967;SDS011;71468;56.880;60.616;2023-07-31T10:18:27;14.30;;;9.95;;
81967;SDS011;71468;56.880;60.616;2023-07-31T10:20:54;11.45;;;9.77;;
81967;SDS011;71468;56.880;60.616;2023-07-31T10:23:21;11.73;;;9.55;;
81967;SDS011;71468;56.880;60.616;2023-07-31T10:25:49;14.55;;;9.75;;
81967;SDS011;71468;56.880;60.616;2023-07-31T10:28:16;12.52;;;9.45;;
81967;SDS011;71468;56.880;60.616;2023-07-31T10:30:43;15.80;;;9.45;;
81967;SDS011;71468;56.880;60.616;2023-07-31T10:33:09;12.23;;;9.30;;
81967;SDS011;71468;56.880;60.616;2023-07-31T10:35:37;16.38;;;10.02;;
81967;SDS011;71468;56.880;60.616;2023-07-31T10:38:12;14.00;;;9.57;;
81967;SDS011;71468;56.880;60.616;2023-07-31T10:40:39;16.67;;;9.45;;
81967;SDS011;71468;56.880;60.616;2023-07-31T10:43:06;13.65;;;8.95;;
81967;SDS011;71468;56.880;60.616;2023-07-31T10:45:38;12.00;;;10.02;;
81967;SDS011;71468;56.880;60.616;2023-07-31T10:48:26;13.45;;;9.38;;
81967;SDS011;71468;56.880;60.616;2023-07-31T10:50:56;12.32;;;8.90;;
81967;SDS011;71468;56.880;60.616;2023-07-31T10:53:23;15.57;;;9.48;;
81967;SDS011;71468;56.880;60.616;2023-07-31T10:55:51;11.52;;;9.65;;
81967;SDS011;71468;56.880;60.616;2023-07-31T10:58:18;14.02;;;9.50;;
81967;SDS011;71468;56.880;60.616;2023-07-31T11:00:46;12.10;;;8.93;;
81967;SDS011;71468;56.880;60.616;2023-07-31T11:03:14;16.55;;;9.32;;
81967;SDS011;71468;56.880;60.616;2023-07-31T11:06:00;13.27;;;8.85;;
81967;SDS011;71468;56.880;60.616;2023-07-31T11:08:30;11.90;;;8.93;;
81967;SDS011;71468;56.880;60.616;2023-07-31T11:15:59;11.98;;;8.43;;
81967;SDS011;71468;56.880;60.616;2023-07-31T11:18:27;14.90;;;9.48;;
81967;SDS011;71468;56.880;60.616;2023-07-31T11:20:53;11.70;;;9.68;;
81967;SDS011;71468;56.880;60.616;2023-07-31T11:23:21;16.35;;;9.52;;
81967;SDS011;71468;56.880;60.616;2023-07-31T11:25:48;14.40;;;8.98;;
81967;SDS011;71468;56.880;60.616;2023-07-31T11:28:17;12.60;;;9.07;;
81967;SDS011;71468;56.880;60.616;2023-07-31T11:30:45;15.85;;;9.65;;
81967;SDS011;71468;56.880;60.616;2023-07-31T11:33:13;13.07;;;9.98;;
81967;SDS011;71468;56.880;60.616;2023-07-31T11:35:46;13.07;;;8.98;;
81967;SDS011;71468;56.880;60.616;2023-07-31T11:38:25;11.77;;;8.98;;
81967;SDS011;71468;56.880;60.616;2023-07-31T11:40:53;12.50;;;9.43;;
81967;SDS011;71468;56.880;60.616;2023-07-31T11:43:21;13.70;;;9.48;;
81967;SDS011;71468;56.880;60.616;2023-07-31T11:45:48;14.63;;;9.10;;
81967;SDS011;71468;56.880;60.616;2023-07-31T11:48:21;14.95;;;9.80;;
81967;SDS011;71468;56.880;60.616;2023-07-31T11:50:58;10.82;;;9.02;;
81967;SDS011;71468;56.880;60.616;2023-07-31T11:53:44;12.95;;;9.60;;
81967;SDS011;71468;56.880;60.616;2023-07-31T11:56:13;14.95;;;9.90;;
81967;SDS011;71468;56.880;60.616;2023-07-31T11:58:42;15.25;;;9.77;;
81967;SDS011;71468;56.880;60.616;2023-07-31T12:01:10;14.90;;;10.57;;
81967;SDS011;71468;56.880;60.616;2023-07-31T12:03:37;12.25;;;9.55;;
81967;SDS011;71468;56.880;60.616;2023-07-31T12:06:04;15.45;;;9.65;;
81967;SDS011;71468;56.880;60.616;2023-07-31T12:08:30;17.67;;;9.70;;
81967;SDS011;71468;56.880;60.616;2023-07-31T12:11:02;12.35;;;9.57;;
81967;SDS011;71468;56.880;60.616;2023-07-31T12:13:30;11.73;;;9.48;;
81967;SDS011;71468;56.880;60.616;2023-07-31T12:15:58;15.73;;;9.73;;
81967;SDS011;71468;56.880;60.616;2023-07-31T12:18:27;11.73;;;10.15;;
81967;SDS011;71468;56.880;60.616;2023-07-31T12:20:58;13.48;;;9.63;;
81967;SDS011;71468;56.880;60.616;2023-07-31T12:31:29;12.30;;;9.60;;
81967;SDS011;71468;56.880;60.616;2023-07-31T12:33:56;12.20;;;9.25;;
81967;SDS011;71468;56.880;60.616;2023-07-31T12:36:23;16.15;;;9.40;;
81967;SDS011;71468;56.880;60.616;2023-07-31T12:38:50;12.85;;;9.30;;
81967;SDS011;71468;56.880;60.616;2023-07-31T12:41:17;13.70;;;9.75;;
81967;SDS011;71468;56.880;60.616;2023-07-31T12:43:45;18.65;;;10.07;;
81967;SDS011;71468;56.880;60.616;2023-07-31T12:46:11;11.18;;;8.70;;
81967;SDS011;71468;56.880;60.616;2023-07-31T12:48:38;16.83;;;9.43;;
81967;SDS011;71468;56.880;60.616;2023-07-31T12:51:04;15.07;;;9.00;;
81967;SDS011;71468;56.880;60.616;2023-07-31T12:53:32;11.40;;;8.90;;
81967;SDS011;71468;56.880;60.616;2023-07-31T12:55:59;17.00;;;8.75;;
81967;SDS011;71468;56.880;60.616;2023-07-31T12:58:25;15.07;;;8.73;;
81967;SDS011;71468;56.880;60.616;2023-07-31T13:00:52;13.98;;;9.07;;
81967;SDS011;71468;56.880;60.616;2023-07-31T13:03:19;14.48;;;8.85;;
81967;SDS011;71468;56.880;60.616;2023-07-31T13:05:45;13.02;;;8.82;;
81967;SDS011;71468;56.880;60.616;2023-07-31T13:08:12;11.98;;;8.48;;
81967;SDS011;71468;56.880;60.616;2023-07-31T13:10:38;12.88;;;9.10;;
81967;SDS011;71468;56.880;60.616;2023-07-31T13:13:05;16.60;;;9.00;;
81967;SDS011;71468;56.880;60.616;2023-07-31T13:15:31;15.32;;;9.18;;
81967;SDS011;71468;56.880;60.616;2023-07-31T13:17:58;14.38;;;9.20;;
81967;SDS011;71468;56.880;60.616;2023-07-31T13:20:25;21.80;;;8.73;;
81967;SDS011;71468;56.880;60.616;2023-07-31T13:22:52;16.38;;;8.98;;
81967;SDS011;71468;56.880;60.616;2023-07-31T13:25:18;18.27;;;8.85;;
81967;SDS011;71468;56.880;60.616;2023-07-31T13:27:45;10.90;;;8.77;;
81967;SDS011;71468;56.880;60.616;2023-07-31T13:30:12;17.08;;;8.52;;
81967;SDS011;71468;56.880;60.616;2023-07-31T13:32:38;13.90;;;8.52;;
81967;SDS011;71468;56.880;60.616;2023-07-31T13:35:06;12.65;;;8.98;;
81967;SDS011;71468;56.880;60.616;2023-07-31T13:37:34;23.33;;;9.80;;
81967;SDS011;71468;56.880;60.616;2023-07-31T13:40:00;21.63;;;9.90;;
81967;SDS011;71468;56.880;60.616;2023-07-31T13:42:27;12.68;;;8.38;;
81967;SDS011;71468;56.880;60.616;2023-07-31T13:44:54;26.38;;;10.77;;
81967;SDS011;71468;56.880;60.616;2023-07-31T13:47:22;22.65;;;10.90;;
81967;SDS011;71468;56.880;60.616;2023-07-31T13:49:48;24.83;;;12.55;;
81967;SDS011;71468;56.880;60.616;2023-07-31T13:52:15;24.52;;;12.40;;
81967;SDS011;71468;56.880;60.616;2023-07-31T13:54:42;27.48;;;13.02;;
81967;SDS011;71468;56.880;60.616;2023-07-31T13:57:09;17.38;;;10.93;;
81967;SDS011;71468;56.880;60.616;2023-07-31T13:59:36;20.77;;;10.50;;
81967;SDS011;71468;56.880;60.616;2023-07-31T14:02:02;22.20;;;12.07;;
81967;SDS011;71468;56.880;60.616;2023-07-31T14:04:29;21.42;;;12.05;;
81967;SDS011;71468;56.880;60.616;2023-07-31T14:06:56;20.83;;;11.63;;
81967;SDS011;71468;56.880;60.616;2023-07-31T14:09:23;18.95;;;11.43;;
81967;SDS011;71468;56.880;60.616;2023-07-31T14:11:49;13.30;;;9.93;;
81967;SDS011;71468;56.880;60.616;2023-07-31T14:14:16;20.90;;;11.20;;
81967;SDS011;71468;56.880;60.616;2023-07-31T14:16:44;16.75;;;10.63;;
81967;SDS011;71468;56.880;60.616;2023-07-31T14:19:10;18.80;;;11.73;;
81967;SDS011;71468;56.880;60.616;2023-07-31T14:21:37;19.63;;;12.30;;
81967;SDS011;71468;56.880;60.616;2023-07-31T14:24:03;23.67;;;11.80;;
81967;SDS011;71468;56.880;60.616;2023-07-31T14:26:30;23.98;;;13.25;;
81967;SDS011;71468;56.880;60.616;2023-07-31T14:28:57;15.77;;;10.82;;
81967;SDS011;71468;56.880;60.616;2023-07-31T14:31:23;14.27;;;9.93;;